ヨハネスブルグ の空港の天気 - METARとTAF

ヨハネスブルグ/O.R.タンボ国際空港 ( FAOR / JNB ) - 南アフリカ ヨハネスブルグ
飛行場実況気象(Metar)
観測時間10/01 18:00 SAST (10/01 16:00 UTC)
風向・風速北北西 3m/s
視程10km以上
天気現象
なし
気温22℃
湿度53%
気圧1018hPa
METARFAOR 011600Z 34005KT CAVOK 22/12 Q1018 NOSIG
過去の天気等 Google飛行場航空写真 Wunderground天気予報

過去48時間のMETAR

飛行場予報(TAF)
発表時間: 10/01 10:32 SAST (10/01 08:32 UTC)
予報対象時間: 1日8時 SAST ~ 2日14時 SAST
風向・風速北 8m/s
視程10km以上
全天の8割程度の雲 雲底高度 120m
全天を覆う雲 雲底高度 430m
1日10時 SAST ~ 1日12時 SAST に徐々に
全天の8割程度の雲 雲底高度 610m
1日12時 SAST から
風向・風速北 9m/s
視程10km以上
全天の4割程度の雲 雲底高度 910m
1日18時 SAST ~ 1日23時 SAST に 確率 30% で一時的に
天気現象弱い雷雨
少しの積乱雲 雲底高度 1070m
1日22時 SAST ~ 1日24時 SAST に徐々に
風向・風速東北東 5m/s
全天の8割程度の雲 雲底高度 300m
2日2時 SAST ~ 2日9時 SAST に 確率 30% で一時的に
視程5000m
天気現象しゅう雨
全天の8割程度の雲 雲底高度 240m
少しの塔状積雲 雲底高度 910m
2日9時 SAST ~ 2日11時 SAST に徐々に
全天の8割程度の雲 雲底高度 760m
TAF FAOR 010832Z 0106/0212 36016KT 9999 BKN004 OVC014 TX21/0113Z TN12/0204Z
BECMG 0108/0110 BKN020
FM011000 35017KT 9999 SCT030
PROB30 TEMPO 0116/0121 -TSRA FEW035CB
BECMG 0120/0122 07010KT BKN010
PROB30 TEMPO 0200/0207 5000 SHRA BKN008 FEW030TCU
BECMG 0207/0209 BKN025